Time;durP1;ratioP1;P1;durP2;ratioP2;P2;SDS_P1;SDS_P2;PMS_P1;PMS_P2;Temp;Humidity;BMP_temperature;BMP_pressure;BME280_temperature;BME280_humidity;BME280_pressure;Samples;Min_cycle;Max_cycle;Signal;HPM_P1;HPM_P2
2023/10/06 00:00:46;;;;;;;;;;;12.20;99.90;;;;;;2618373;47;19947;-73
2023/10/06 00:03:16;;;;;;;;;;;12.10;99.90;;;;;;2619575;54;19973;-73
2023/10/06 00:05:49;;;;;;;;;;;12.20;99.90;;;;;;2619991;47;19947;-73
2023/10/06 00:08:20;;;;;;;;;;;12.10;99.90;;;;;;2619284;54;19946;-74
2023/10/06 00:10:54;;;;;;;;;;;12.10;99.90;;;;;;2620849;54;19946;-74
2023/10/06 00:13:29;;;;;;;;;;;12.10;99.90;;;;;;2620828;54;20078;-74
2023/10/06 00:15:59;;;;;;;;;;;12.00;99.90;;;;;;2620415;54;20002;-74
2023/10/06 00:18:29;;;;;;;;;;;12.00;99.90;;;;;;2620926;54;19954;-74
2023/10/06 00:21:05;;;;;;;;;;;12.00;99.90;;;;;;2628660;54;19946;-74
2023/10/06 00:23:39;;;;;;;;;;;11.90;99.90;;;;;;2628020;47;19942;-74
2023/10/06 00:26:10;;;;;;;;;;;11.90;99.90;;;;;;2625585;54;19951;-73
2023/10/06 00:28:40;;;;;;;;;;;11.90;99.90;;;;;;2619110;54;19946;-73
2023/10/06 00:31:11;;;;;;;;;;;11.90;99.90;;;;;;2619277;54;19952;-73
2023/10/06 00:33:42;;;;;;;;;;;11.90;99.90;;;;;;2619246;47;20041;-73
2023/10/06 00:36:17;;;;;;;;;;;11.80;99.90;;;;;;2620069;54;20461;-74
2023/10/06 00:38:50;;;;;;;;;;;11.90;99.90;;;;;;2618855;54;19954;-73
2023/10/06 00:41:21;;;;;;;;;;;11.90;99.90;;;;;;2619316;54;19946;-72
2023/10/06 00:43:51;;;;;;;;;;;11.80;99.90;;;;;;2618990;54;19945;-72
2023/10/06 00:46:21;;;;;;;;;;;11.80;99.90;;;;;;2618459;54;19977;-72
2023/10/06 00:48:56;;;;;;;;;;;11.80;99.90;;;;;;2618882;54;20033;-74
2023/10/06 00:51:29;;;;;;;;;;;11.70;99.90;;;;;;2618785;54;19958;-72
2023/10/06 00:53:59;;;;;;;;;;;11.70;99.90;;;;;;2617804;54;19943;-75
2023/10/06 00:56:29;;;;;;;;;;;11.80;99.90;;;;;;2620280;39;20429;-73
2023/10/06 00:59:03;;;;;;;;;;;11.70;99.90;;;;;;2619191;54;19943;-73
2023/10/06 01:01:34;;;;;;;;;;;11.70;99.90;;;;;;2618624;54;20006;-73
2023/10/06 01:04:08;;;;;;;;;;;11.70;99.90;;;;;;2618524;47;19947;-74
2023/10/06 01:06:42;;;;;;;;;;;11.70;99.90;;;;;;2619551;47;20079;-73
2023/10/06 01:09:15;;;;;;;;;;;11.70;99.90;;;;;;2619884;39;20349;-73
2023/10/06 01:11:46;;;;;;;;;;;11.70;99.90;;;;;;2618117;47;19947;-73
2023/10/06 01:14:21;;;;;;;;;;;11.70;99.90;;;;;;2620467;54;19939;-73
2023/10/06 01:16:53;;;;;;;;;;;11.70;99.90;;;;;;2619141;47;19945;-73
2023/10/06 01:19:33;;;;;;;;;;;11.70;99.90;;;;;;2619552;54;19951;-73
2023/10/06 01:22:21;;;;;;;;;;;11.70;99.90;;;;;;2618352;47;19994;-72
2023/10/06 01:24:58;;;;;;;;;;;11.70;99.90;;;;;;2619895;54;20516;-73
2023/10/06 01:27:28;;;;;;;;;;;11.70;99.90;;;;;;2618413;47;19958;-74
2023/10/06 01:32:41;;;;;;;;;;;11.70;99.90;;;;;;2618779;54;19947;-74
2023/10/06 01:35:12;;;;;;;;;;;11.60;99.90;;;;;;2619566;54;19947;-73
2023/10/06 01:37:43;;;;;;;;;;;11.60;99.90;;;;;;2619386;47;19946;-73
2023/10/06 01:40:35;;;;;;;;;;;11.60;99.90;;;;;;2619670;47;19947;-73
2023/10/06 01:43:10;;;;;;;;;;;11.60;99.90;;;;;;2619395;54;19946;-73
2023/10/06 01:45:43;;;;;;;;;;;11.50;99.90;;;;;;2618844;54;20433;-72
2023/10/06 01:48:28;;;;;;;;;;;11.50;99.90;;;;;;2619302;47;19939;-72
2023/10/06 01:50:58;;;;;;;;;;;11.50;99.90;;;;;;2618924;54;20418;-73
2023/10/06 01:53:32;;;;;;;;;;;11.60;99.90;;;;;;2619307;47;20051;-72
2023/10/06 01:56:08;;;;;;;;;;;11.60;99.90;;;;;;2620255;54;20438;-72
2023/10/06 01:58:39;;;;;;;;;;;11.60;99.90;;;;;;2621163;39;20345;-73
2023/10/06 02:01:09;;;;;;;;;;;11.60;99.90;;;;;;2618636;54;19961;-73
2023/10/06 02:03:41;;;;;;;;;;;11.60;99.90;;;;;;2619132;54;20476;-73
2023/10/06 02:06:16;;;;;;;;;;;11.50;99.90;;;;;;2619876;54;19947;-75
2023/10/06 02:08:49;;;;;;;;;;;11.50;99.90;;;;;;2619573;47;20030;-72
2023/10/06 02:11:30;;;;;;;;;;;11.50;99.90;;;;;;2618826;39;20350;-73
2023/10/06 02:14:00;;;;;;;;;;;11.50;99.90;;;;;;2619251;54;19950;-72
2023/10/06 02:16:30;;;;;;;;;;;11.50;99.90;;;;;;2618255;54;19974;-73
2023/10/06 02:19:01;;;;;;;;;;;11.50;99.90;;;;;;2619806;54;19946;-72
2023/10/06 02:21:31;;;;;;;;;;;11.40;99.90;;;;;;2618404;47;19953;-72
2023/10/06 02:24:04;;;;;;;;;;;11.40;99.90;;;;;;2620502;54;19957;-72
2023/10/06 02:26:38;;;;;;;;;;;11.40;99.90;;;;;;2623341;39;20353;-73
2023/10/06 02:29:18;;;;;;;;;;;11.40;99.90;;;;;;2622821;54;19953;-73
2023/10/06 02:31:47;;;;;;;;;;;11.40;99.90;;;;;;2627679;54;19950;-73
2023/10/06 02:34:18;;;;;;;;;;;11.40;99.90;;;;;;2624716;50;19938;-73
2023/10/06 02:36:48;;;;;;;;;;;11.30;99.90;;;;;;2620499;54;19947;-73
2023/10/06 02:39:19;;;;;;;;;;;11.30;99.90;;;;;;2619390;54;19973;-73
2023/10/06 02:41:57;;;;;;;;;;;11.30;99.90;;;;;;2619544;54;19946;-73
2023/10/06 02:44:29;;;;;;;;;;;11.30;99.90;;;;;;2619777;54;19966;-72
2023/10/06 02:47:00;;;;;;;;;;;11.30;99.90;;;;;;2619948;39;20341;-73
2023/10/06 02:49:35;;;;;;;;;;;11.30;99.90;;;;;;2619798;54;19943;-73
2023/10/06 02:52:13;;;;;;;;;;;11.30;99.90;;;;;;2618811;54;19951;-73
2023/10/06 02:54:46;;;;;;;;;;;11.30;99.90;;;;;;2618870;54;19958;-72
2023/10/06 02:57:20;;;;;;;;;;;11.20;99.90;;;;;;2618796;54;19953;-73
2023/10/06 02:59:56;;;;;;;;;;;11.20;99.90;;;;;;2618348;54;19999;-73
2023/10/06 03:02:26;;;;;;;;;;;11.20;99.90;;;;;;2618872;47;20437;-73
2023/10/06 03:05:13;;;;;;;;;;;11.20;99.90;;;;;;2619851;47;19995;-73
2023/10/06 03:07:43;;;;;;;;;;;11.20;99.90;;;;;;2619697;54;19953;-73
2023/10/06 03:10:17;;;;;;;;;;;11.20;99.90;;;;;;2619476;54;19939;-73
2023/10/06 03:12:50;;;;;;;;;;;11.20;99.90;;;;;;2618958;54;19947;-73
2023/10/06 03:15:35;;;;;;;;;;;11.20;99.90;;;;;;2620362;39;20318;-73
2023/10/06 03:18:08;;;;;;;;;;;11.20;99.90;;;;;;2619561;47;19946;-73
2023/10/06 03:20:46;;;;;;;;;;;11.40;99.90;;;;;;2617650;47;20510;-73
2023/10/06 03:23:26;;;;;;;;;;;11.10;99.90;;;;;;2617701;54;20437;-73
2023/10/06 03:25:56;;;;;;;;;;;11.10;99.90;;;;;;2616263;39;20353;-73
2023/10/06 03:28:32;;;;;;;;;;;11.10;99.90;;;;;;2618220;51;19946;-72
2023/10/06 03:31:21;;;;;;;;;;;11.00;99.90;;;;;;2618107;39;20353;-73
2023/10/06 03:33:54;;;;;;;;;;;11.00;99.90;;;;;;2619070;54;19986;-73
2023/10/06 03:36:37;;;;;;;;;;;11.00;99.90;;;;;;2619457;54;19951;-72
2023/10/06 03:39:10;;;;;;;;;;;11.00;99.90;;;;;;2622280;54;19998;-72
2023/10/06 03:41:44;;;;;;;;;;;11.00;99.90;;;;;;2622679;54;19946;-73
2023/10/06 08:02:24;;;;;;;;;;;11.00;99.90;;;;;;2602450;39;21259;-71
2023/10/06 08:04:54;;;;;;;;;;;12.30;99.90;;;;;;2604985;47;19954;-72
2023/10/06 08:07:27;;;;;;;;;;;12.40;99.90;;;;;;2607355;54;19950;-72
2023/10/06 08:10:00;;;;;;;;;;;13.50;99.90;;;;;;2605624;54;20010;-70
2023/10/06 08:12:30;;;;;;;;;;;12.50;99.90;;;;;;2605602;47;19946;-72
2023/10/06 08:14:59;;;;;;;;;;;12.50;99.90;;;;;;2605661;54;19953;-71
2023/10/06 08:17:31;;;;;;;;;;;12.60;99.90;;;;;;2605162;54;19946;-71
2023/10/06 08:20:01;;;;;;;;;;;12.70;99.90;;;;;;2605764;47;19998;-71
2023/10/06 08:22:33;;;;;;;;;;;12.70;99.90;;;;;;2604828;54;20749;-72
2023/10/06 08:25:06;;;;;;;;;;;12.70;99.90;;;;;;2604808;54;19947;-73
2023/10/06 08:27:36;;;;;;;;;;;12.80;99.90;;;;;;2605801;54;19946;-73
2023/10/06 08:30:09;;;;;;;;;;;12.90;99.90;;;;;;2605309;54;19957;-73
2023/10/06 08:32:42;;;;;;;;;;;12.90;99.90;;;;;;2604617;47;19947;-74
2023/10/06 08:35:13;;;;;;;;;;;13.10;99.90;;;;;;2604581;54;19947;-74
2023/10/06 08:37:43;;;;;;;;;;;13.20;99.90;;;;;;2605422;47;19947;-73
2023/10/06 08:40:16;;;;;;;;;;;13.30;99.90;;;;;;2605547;54;19947;-73
2023/10/06 08:42:48;;;;;;;;;;;13.30;99.90;;;;;;2605181;54;19947;-73
2023/10/06 08:45:21;;;;;;;;;;;13.40;99.90;;;;;;2605040;39;20448;-73
2023/10/06 08:47:58;;;;;;;;;;;13.50;99.90;;;;;;2606029;54;20465;-72
2023/10/06 08:50:32;;;;;;;;;;;13.60;99.90;;;;;;2604961;54;19950;-73
2023/10/06 08:53:05;;;;;;;;;;;13.60;99.90;;;;;;2604321;54;19946;-73
2023/10/06 08:55:35;;;;;;;;;;;13.70;99.90;;;;;;2604419;54;19938;-73
2023/10/06 08:58:07;;;;;;;;;;;13.80;99.90;;;;;;2604334;54;19951;-74
2023/10/06 09:00:37;;;;;;;;;;;13.90;99.90;;;;;;2601485;47;20441;-73
2023/10/06 09:03:14;;;;;;;;;;;14.00;99.90;;;;;;2605414;50;19951;-72
2023/10/06 09:05:44;;;;;;;;;;;14.10;99.90;;;;;;2604788;54;19953;-73
2023/10/06 09:08:15;;;;;;;;;;;14.20;99.90;;;;;;2605174;47;19957;-73
2023/10/06 09:10:48;;;;;;;;;;;14.30;99.90;;;;;;2606206;54;20107;-72
2023/10/06 09:13:19;;;;;;;;;;;14.40;99.90;;;;;;2607226;54;19962;-71
2023/10/06 09:15:59;;;;;;;;;;;14.50;99.90;;;;;;2606353;54;20770;-71
2023/10/06 09:18:34;;;;;;;;;;;14.50;99.90;;;;;;2606397;39;20341;-72
2023/10/06 09:21:15;;;;;;;;;;;15.60;99.90;;;;;;2605691;47;19946;-71
2023/10/06 09:23:46;;;;;;;;;;;14.80;99.90;;;;;;2605436;39;20463;-72
2023/10/06 09:26:19;;;;;;;;;;;14.80;99.90;;;;;;2606150;47;19950;-72
2023/10/06 09:28:53;;;;;;;;;;;14.90;99.90;;;;;;2605696;54;19947;-72
2023/10/06 09:31:35;;;;;;;;;;;14.90;99.90;;;;;;2604483;54;19946;-73
2023/10/06 09:34:11;;;;;;;;;;;15.00;99.90;;;;;;2605423;47;20528;-72
2023/10/06 09:36:42;;;;;;;;;;;15.10;99.90;;;;;;2606150;46;19959;-72
2023/10/06 09:39:20;;;;;;;;;;;15.10;99.90;;;;;;2604754;47;19975;-71
2023/10/06 09:41:51;;;;;;;;;;;15.20;99.90;;;;;;2605775;54;19954;-73
2023/10/06 09:44:22;;;;;;;;;;;13.70;99.90;;;;;;2606399;39;20411;-72
2023/10/06 09:46:54;;;;;;;;;;;15.40;99.90;;;;;;2606057;54;19954;-71
2023/10/06 09:49:28;;;;;;;;;;;15.40;99.90;;;;;;2606179;54;19970;-72
2023/10/06 09:51:57;;;;;;;;;;;15.50;99.90;;;;;;2605183;47;19950;-71
2023/10/06 09:54:27;;;;;;;;;;;15.50;99.90;;;;;;2606091;54;19938;-70
2023/10/06 09:56:57;;;;;;;;;;;15.50;99.90;;;;;;2606584;54;20449;-71
2023/10/06 09:59:27;;;;;;;;;;;15.50;99.90;;;;;;2605543;54;19946;-72
2023/10/06 10:01:56;;;;;;;;;;;15.60;99.90;;;;;;2604676;54;19946;-73
2023/10/06 10:04:32;;;;;;;;;;;15.60;99.90;;;;;;2605393;54;19947;-72
2023/10/06 10:07:02;;;;;;;;;;;15.80;99.90;;;;;;2604996;54;19947;-72
2023/10/06 10:09:34;;;;;;;;;;;15.80;99.90;;;;;;2605755;39;20293;-71
2023/10/06 10:12:10;;;;;;;;;;;15.90;99.90;;;;;;2604403;54;19977;-72
2023/10/06 10:14:52;;;;;;;;;;;16.00;99.90;;;;;;2604876;54;20077;-71
2023/10/06 10:17:25;;;;;;;;;;;16.10;99.90;;;;;;2604887;54;20050;-73
2023/10/06 10:19:58;;;;;;;;;;;16.30;99.90;;;;;;2607295;39;20654;-72
2023/10/06 10:22:31;;;;;;;;;;;16.50;99.90;;;;;;2604862;54;19974;-72
2023/10/06 10:25:05;;;;;;;;;;;16.70;99.90;;;;;;2604914;54;19954;-71
2023/10/06 10:28:08;;;;;;;;;;;16.80;99.90;;;;;;2604579;54;19991;-72
2023/10/06 10:30:49;;;;;;;;;;;17.00;99.90;;;;;;2603660;54;19947;-70
2023/10/06 10:33:22;;;;;;;;;;;17.10;99.90;;;;;;2605028;47;19947;-71
2023/10/06 10:36:07;;;;;;;;;;;17.30;99.90;;;;;;2604552;54;19947;-72
2023/10/06 10:38:40;;;;;;;;;;;17.50;99.90;;;;;;2604729;54;19958;-72
2023/10/06 10:41:09;;;;;;;;;;;17.60;99.90;;;;;;2604914;54;19990;-72
2023/10/06 10:43:39;;;;;;;;;;;17.70;99.90;;;;;;2604964;54;19977;-71
2023/10/06 10:46:12;;;;;;;;;;;17.80;99.90;;;;;;2605331;39;20643;-71
2023/10/06 10:48:47;;;;;;;;;;;18.00;99.90;;;;;;2605139;54;19954;-72
2023/10/06 10:51:21;;;;;;;;;;;18.10;99.90;;;;;;2606105;54;19977;-71
2023/10/06 10:53:54;;;;;;;;;;;18.20;99.90;;;;;;2606285;54;20583;-71
2023/10/06 10:56:36;;;;;;;;;;;18.30;99.90;;;;;;2605854;54;19950;-72
2023/10/06 10:59:08;;;;;;;;;;;18.40;99.90;;;;;;2615377;39;20322;-71
2023/10/06 11:01:38;;;;;;;;;;;18.60;99.90;;;;;;2615602;54;20030;-72
2023/10/06 11:04:18;;;;;;;;;;;18.70;99.90;;;;;;2616576;54;19947;-72
2023/10/06 11:06:49;;;;;;;;;;;18.90;99.90;;;;;;2616594;39;20345;-71
2023/10/06 11:09:29;;;;;;;;;;;19.00;99.90;;;;;;2617299;54;19954;-72
2023/10/06 11:12:00;;;;;;;;;;;19.00;99.90;;;;;;2615971;54;19953;-72
2023/10/06 11:14:51;;;;;;;;;;;19.10;99.90;;;;;;2616489;46;20063;-72
2023/10/06 11:17:22;;;;;;;;;;;19.20;99.90;;;;;;2615821;54;19950;-72
2023/10/06 11:20:08;;;;;;;;;;;19.30;99.90;;;;;;2616583;54;19950;-73
2023/10/06 11:22:42;;;;;;;;;;;19.30;99.90;;;;;;2615375;54;19942;-72
2023/10/06 11:25:16;;;;;;;;;;;19.40;99.90;;;;;;2615721;47;19939;-72
2023/10/06 11:27:46;;;;;;;;;;;19.50;99.90;;;;;;2616193;54;19954;-73
2023/10/06 11:30:17;;;;;;;;;;;19.70;99.90;;;;;;2615758;54;19950;-75
2023/10/06 11:32:46;;;;;;;;;;;19.80;99.90;;;;;;2617362;39;20366;-74
2023/10/06 11:35:16;;;;;;;;;;;19.90;99.90;;;;;;2617052;39;20086;-75
2023/10/06 11:37:46;;;;;;;;;;;20.00;99.90;;;;;;2615304;54;19954;-74
2023/10/06 11:40:21;;;;;;;;;;;20.10;99.90;;;;;;2616212;47;19947;-74
2023/10/06 11:42:51;;;;;;;;;;;20.10;99.90;;;;;;2616996;39;20425;-74
2023/10/06 11:45:27;;;;;;;;;;;20.20;99.90;;;;;;2616407;47;19953;-73
2023/10/06 11:47:58;;;;;;;;;;;20.30;99.90;;;;;;2616386;47;19947;-72
2023/10/06 11:50:32;;;;;;;;;;;20.40;99.90;;;;;;2616113;47;19946;-75
2023/10/06 11:53:02;;;;;;;;;;;20.60;99.90;;;;;;2617172;47;19953;-74
2023/10/06 11:55:35;;;;;;;;;;;20.70;99.90;;;;;;2616186;47;19999;-73
2023/10/06 11:58:08;;;;;;;;;;;20.80;99.90;;;;;;2616229;39;20610;-76
2023/10/06 12:00:39;;;;;;;;;;;21.00;99.90;;;;;;2615434;47;19946;-76
2023/10/06 12:03:11;;;;;;;;;;;21.10;99.90;;;;;;2616045;53;19945;-73
2023/10/06 12:05:43;;;;;;;;;;;21.20;99.90;;;;;;2615391;54;19938;-75
2023/10/06 12:08:15;;;;;;;;;;;21.10;99.90;;;;;;2614586;47;20030;-75
2023/10/06 12:10:50;;;;;;;;;;;21.10;99.90;;;;;;2614346;54;19950;-75
2023/10/06 12:13:20;;;;;;;;;;;21.10;99.90;;;;;;2616053;54;20838;-75
2023/10/06 12:15:50;;;;;;;;;;;21.20;99.90;;;;;;2615215;54;19947;-77
2023/10/06 12:18:22;;;;;;;;;;;21.30;99.90;;;;;;2616172;47;19947;-76
2023/10/06 12:20:52;;;;;;;;;;;21.40;99.90;;;;;;2615949;47;19945;-76
2023/10/06 12:23:22;;;;;;;;;;;21.50;99.90;;;;;;2616793;46;19939;-73
2023/10/06 12:25:55;;;;;;;;;;;21.60;99.90;;;;;;2618451;39;20341;-76
2023/10/06 12:28:25;;;;;;;;;;;21.70;99.90;;;;;;2617094;54;19939;-74
2023/10/06 12:30:55;;;;;;;;;;;21.80;99.90;;;;;;2618156;39;20338;-75
2023/10/06 12:33:25;;;;;;;;;;;22.00;99.90;;;;;;2616703;47;20064;-76
2023/10/06 12:35:55;;;;;;;;;;;22.10;99.90;;;;;;2621889;54;19947;-75
2023/10/06 12:38:26;;;;;;;;;;;22.20;99.90;;;;;;2617550;51;20039;-77
2023/10/06 12:40:59;;;;;;;;;;;22.20;99.90;;;;;;2617393;39;20479;-77
2023/10/06 12:43:29;;;;;;;;;;;22.30;99.90;;;;;;2618702;47;20431;-79
2023/10/06 12:46:03;;;;;;;;;;;22.40;99.90;;;;;;2617990;49;19958;-78
2023/10/06 12:48:38;;;;;;;;;;;22.40;99.90;;;;;;2619822;47;19947;-80
2023/10/06 12:51:15;;;;;;;;;;;22.40;99.90;;;;;;2620115;47;20026;-79
2023/10/06 12:53:45;;;;;;;;;;;22.40;99.90;;;;;;2624993;54;19979;-81
2023/10/06 12:56:17;;;;;;;;;;;22.40;99.90;;;;;;2625070;47;19943;-79
2023/10/06 12:58:47;;;;;;;;;;;22.50;99.90;;;;;;2621214;54;19939;-78
2023/10/06 13:01:17;;;;;;;;;;;22.50;99.90;;;;;;2620834;47;20024;-78
2023/10/06 13:03:47;;;;;;;;;;;22.60;99.90;;;;;;2618925;47;19939;-79
2023/10/06 13:06:17;;;;;;;;;;;22.70;99.90;;;;;;2618762;39;20343;-75
2023/10/06 13:08:49;;;;;;;;;;;22.80;99.90;;;;;;2615869;54;19953;-75
2023/10/06 13:11:23;;;;;;;;;;;22.80;99.90;;;;;;2616106;47;19950;-75
2023/10/06 13:13:53;;;;;;;;;;;22.80;99.90;;;;;;2618023;47;20051;-75
2023/10/06 13:16:23;;;;;;;;;;;22.80;99.90;;;;;;2619421;47;20049;-75
2023/10/06 13:18:53;;;;;;;;;;;22.90;99.90;;;;;;2617262;39;20264;-77
2023/10/06 13:21:23;;;;;;;;;;;22.60;99.90;;;;;;2618228;54;19963;-76
2023/10/06 13:23:57;;;;;;;;;;;22.50;99.90;;;;;;2619706;54;19947;-74
2023/10/06 13:26:34;;;;;;;;;;;22.40;99.90;;;;;;2619453;54;19957;-75
2023/10/06 13:29:12;;;;;;;;;;;22.30;99.90;;;;;;2615254;46;20049;-76
2023/10/06 13:31:42;;;;;;;;;;;22.20;99.90;;;;;;2615989;39;20345;-76
2023/10/06 13:34:12;;;;;;;;;;;22.00;99.90;;;;;;2615726;54;19946;-75
2023/10/06 13:36:42;;;;;;;;;;;21.90;99.90;;;;;;2616258;54;20457;-76
2023/10/06 13:39:15;;;;;;;;;;;21.90;99.90;;;;;;2614983;54;20034;-75
2023/10/06 13:41:49;;;;;;;;;;;21.80;99.90;;;;;;2615854;47;19953;-75
2023/10/06 13:44:19;;;;;;;;;;;21.70;99.90;;;;;;2615804;54;20041;-76
2023/10/06 13:46:48;;;;;;;;;;;21.60;99.90;;;;;;2615769;54;20026;-74
2023/10/06 13:49:19;;;;;;;;;;;21.50;99.90;;;;;;2616326;39;20364;-74
2023/10/06 13:51:49;;;;;;;;;;;21.50;99.90;;;;;;2615481;50;19954;-74
2023/10/06 13:54:19;;;;;;;;;;;21.40;99.90;;;;;;2615782;54;19954;-75
2023/10/06 13:56:51;;;;;;;;;;;21.30;99.90;;;;;;2616268;54;19939;-74
2023/10/06 13:59:22;;;;;;;;;;;21.30;99.90;;;;;;2615793;54;19946;-75
2023/10/06 14:01:52;;;;;;;;;;;21.20;99.90;;;;;;2616156;54;19953;-75
2023/10/06 14:04:23;;;;;;;;;;;21.20;99.90;;;;;;2616128;47;20443;-74
2023/10/06 14:06:55;;;;;;;;;;;21.20;99.90;;;;;;2615854;54;19976;-73
2023/10/06 14:09:29;;;;;;;;;;;21.10;99.90;;;;;;2616478;54;19947;-73
2023/10/06 14:12:02;;;;;;;;;;;21.20;99.90;;;;;;2616085;54;19954;-73
2023/10/06 14:14:54;;;;;;;;;;;21.10;99.90;;;;;;2617180;54;19947;-74
2023/10/06 14:17:32;;;;;;;;;;;21.10;99.90;;;;;;2618679;54;19939;-75
2023/10/06 14:20:10;;;;;;;;;;;21.00;99.90;;;;;;2617686;54;20068;-76
2023/10/06 14:22:42;;;;;;;;;;;21.00;99.90;;;;;;2618254;47;19953;-73
2023/10/06 14:25:13;;;;;;;;;;;21.00;99.90;;;;;;2618667;46;19975;-75
2023/10/06 14:27:47;;;;;;;;;;;21.10;99.90;;;;;;2618068;54;20042;-74
2023/10/06 14:30:20;;;;;;;;;;;21.10;99.90;;;;;;2617197;47;19950;-74
2023/10/06 14:33:07;;;;;;;;;;;21.10;99.90;;;;;;2620133;54;19947;-76
2023/10/06 14:35:52;;;;;;;;;;;21.20;99.90;;;;;;2617117;54;19953;-75
2023/10/06 14:46:53;;;;;;;;;;;22.10;99.90;;;;;;2622378;47;19946;-77
2023/10/06 14:49:39;;;;;;;;;;;22.40;99.90;;;;;;2613291;46;19943;-73
2023/10/06 14:52:10;;;;;;;;;;;22.80;99.90;;;;;;2616230;54;20412;-73
2023/10/06 14:54:40;;;;;;;;;;;23.20;99.90;;;;;;2618779;54;19946;-75
2023/10/06 14:57:10;;;;;;;;;;;25.00;99.90;;;;;;2623514;54;19975;-74
2023/10/06 14:59:44;;;;;;;;;;;26.90;99.90;;;;;;2624209;46;20038;-73
2023/10/06 15:02:14;;;;;;;;;;;28.60;99.90;;;;;;2623926;54;19943;-73
2023/10/06 15:04:44;;;;;;;;;;;29.50;99.90;;;;;;2625864;54;19950;-75
2023/10/06 15:07:14;;;;;;;;;;;30.20;99.90;;;;;;2625913;54;19950;-75
2023/10/06 15:09:44;;;;;;;;;;;30.70;99.90;;;;;;2626382;47;19946;-75
2023/10/06 15:12:15;;;;;;;;;;;31.00;99.90;;;;;;2625946;39;20470;-75
2023/10/06 15:14:48;;;;;;;;;;;30.70;99.90;;;;;;2622059;47;19954;-78
2023/10/06 15:17:19;;;;;;;;;;;30.20;99.90;;;;;;2621431;47;19946;-75
2023/10/06 15:19:50;;;;;;;;;;;29.90;99.90;;;;;;2623164;54;19939;-75
2023/10/06 15:22:22;;;;;;;;;;;29.70;99.90;;;;;;2622513;47;19958;-76
2023/10/06 15:24:52;;;;;;;;;;;29.30;99.90;;;;;;2625063;47;19938;-75
2023/10/06 15:27:23;;;;;;;;;;;29.10;99.90;;;;;;2627885;54;19939;-75
2023/10/06 15:29:55;;;;;;;;;;;28.60;99.90;;;;;;2625319;39;20403;-73
2023/10/06 15:32:27;;;;;;;;;;;27.80;99.90;;;;;;2624443;54;19953;-77
2023/10/06 15:34:57;;;;;;;;;;;27.10;99.90;;;;;;2624783;54;19951;-73
2023/10/06 15:37:26;;;;;;;;;;;26.40;99.90;;;;;;2624231;54;19946;-72
2023/10/06 15:39:58;;;;;;;;;;;25.70;99.90;;;;;;2626293;54;19951;-72
2023/10/06 15:42:38;;;;;;;;;;;25.20;99.90;;;;;;2623702;47;20016;-73
2023/10/06 15:45:13;;;;;;;;;;;24.50;99.90;;;;;;2620427;54;20039;-73
2023/10/06 15:47:43;;;;;;;;;;;24.00;99.90;;;;;;2620438;51;19939;-73
2023/10/06 15:50:13;;;;;;;;;;;23.40;99.90;;;;;;2620101;54;19939;-75
2023/10/06 15:52:51;;;;;;;;;;;22.90;99.90;;;;;;2622993;54;19945;-72
2023/10/06 15:55:21;;;;;;;;;;;22.40;99.90;;;;;;2620492;54;20003;-74
2023/10/06 15:57:53;;;;;;;;;;;22.10;99.90;;;;;;2621651;54;20032;-73
2023/10/06 16:00:26;;;;;;;;;;;21.80;99.90;;;;;;2621938;54;19947;-73
2023/10/06 16:03:00;;;;;;;;;;;21.60;99.90;;;;;;2621579;47;20439;-73
2023/10/06 16:05:30;;;;;;;;;;;21.40;99.90;;;;;;2623078;47;19970;-72
2023/10/06 16:08:01;;;;;;;;;;;21.30;99.90;;;;;;2622050;54;19999;-74
2023/10/06 16:10:34;;;;;;;;;;;21.10;99.90;;;;;;2623916;47;19975;-73
2023/10/06 16:13:05;;;;;;;;;;;21.00;99.90;;;;;;2621681;54;19947;-73
2023/10/06 16:15:41;;;;;;;;;;;20.80;99.90;;;;;;2623112;47;20099;-72
2023/10/06 16:18:32;;;;;;;;;;;20.70;99.90;;;;;;2617406;47;19938;-72
2023/10/06 16:21:04;;;;;;;;;;;20.50;99.90;;;;;;2616803;47;19974;-73
2023/10/06 16:23:34;;;;;;;;;;;20.40;99.90;;;;;;2616952;47;20446;-73
2023/10/06 16:26:08;;;;;;;;;;;20.20;99.90;;;;;;2617089;47;19939;-73
2023/10/06 16:28:39;;;;;;;;;;;20.10;99.90;;;;;;2617663;54;20002;-73
2023/10/06 16:31:12;;;;;;;;;;;19.90;99.90;;;;;;2617106;54;19950;-73
2023/10/06 16:33:43;;;;;;;;;;;19.80;99.90;;;;;;2617983;54;19939;-73
2023/10/06 16:36:13;;;;;;;;;;;19.60;99.90;;;;;;2617711;46;19950;-73
2023/10/06 16:38:43;;;;;;;;;;;19.70;99.90;;;;;;2617829;54;19939;-73
2023/10/06 16:41:13;;;;;;;;;;;18.70;99.90;;;;;;2617622;54;19947;-74
2023/10/06 16:43:43;;;;;;;;;;;19.20;99.90;;;;;;2617512;54;19942;-73
2023/10/06 16:46:16;;;;;;;;;;;19.10;99.90;;;;;;2616365;54;19946;-74
2023/10/06 16:48:46;;;;;;;;;;;19.00;99.90;;;;;;2617610;47;19946;-76
2023/10/06 16:51:17;;;;;;;;;;;18.90;99.90;;;;;;2617925;47;19950;-73
2023/10/06 16:53:47;;;;;;;;;;;18.70;99.90;;;;;;2618451;47;19939;-74
2023/10/06 16:56:18;;;;;;;;;;;18.60;99.90;;;;;;2617949;54;19938;-73
2023/10/06 16:58:48;;;;;;;;;;;18.50;99.90;;;;;;2617449;54;19939;-74
2023/10/06 17:01:21;;;;;;;;;;;18.40;99.90;;;;;;2617973;54;19939;-74
2023/10/06 17:03:52;;;;;;;;;;;18.20;99.90;;;;;;2617794;54;20467;-74
2023/10/06 17:06:22;;;;;;;;;;;18.10;99.90;;;;;;2620475;47;20010;-74
2023/10/06 17:08:52;;;;;;;;;;;18.00;99.90;;;;;;2625069;47;19943;-75
2023/10/06 17:11:22;;;;;;;;;;;17.90;99.90;;;;;;2622379;54;20011;-75
2023/10/06 17:13:54;;;;;;;;;;;17.80;99.90;;;;;;2619471;54;19946;-76
2023/10/06 17:16:28;;;;;;;;;;;17.70;99.90;;;;;;2618752;47;20455;-74
2023/10/06 17:22:01;;;;;;;;;;;17.60;99.90;;;;;;2620173;47;19969;-75
2023/10/06 17:24:31;;;;;;;;;;;17.50;99.90;;;;;;2618838;47;19946;-75
2023/10/06 17:27:01;;;;;;;;;;;17.40;99.90;;;;;;2617597;47;19977;-73
2023/10/06 17:29:32;;;;;;;;;;;17.30;99.90;;;;;;2619257;54;19986;-74
2023/10/06 17:32:06;;;;;;;;;;;17.20;99.90;;;;;;2617526;47;19959;-74
2023/10/06 17:34:41;;;;;;;;;;;17.10;99.90;;;;;;2618909;54;19987;-75
2023/10/06 17:37:11;;;;;;;;;;;17.00;99.90;;;;;;2616972;47;19972;-73
2023/10/06 17:39:51;;;;;;;;;;;17.00;99.90;;;;;;2617382;47;19946;-74
2023/10/06 17:42:21;;;;;;;;;;;16.90;99.90;;;;;;2617490;31;20388;-73
2023/10/06 17:44:51;;;;;;;;;;;16.80;99.90;;;;;;2616924;54;19995;-73
2023/10/06 17:47:23;;;;;;;;;;;16.70;99.90;;;;;;2617492;51;20083;-77
2023/10/06 17:49:54;;;;;;;;;;;16.70;99.90;;;;;;2622062;54;19959;-77
2023/10/06 17:52:24;;;;;;;;;;;16.60;99.90;;;;;;2620295;54;19971;-78
2023/10/06 17:54:55;;;;;;;;;;;16.60;99.90;;;;;;2620042;54;19939;-77
2023/10/06 17:57:26;;;;;;;;;;;16.50;99.90;;;;;;2621609;54;20440;-77
2023/10/06 17:59:55;;;;;;;;;;;16.40;99.90;;;;;;2622424;47;19998;-78
2023/10/06 18:02:28;;;;;;;;;;;16.00;99.90;;;;;;2626734;54;19977;-79
2023/10/06 18:04:58;;;;;;;;;;;16.40;99.90;;;;;;2622765;47;20066;-77
2023/10/06 18:07:32;;;;;;;;;;;16.30;99.90;;;;;;2623775;47;19947;-79
2023/10/06 18:10:12;;;;;;;;;;;16.20;99.90;;;;;;2624490;47;20002;-77
2023/10/06 18:12:45;;;;;;;;;;;16.20;99.90;;;;;;2625946;47;20007;-78
2023/10/06 18:15:15;;;;;;;;;;;16.20;99.90;;;;;;2624354;54;20054;-80
2023/10/06 18:17:48;;;;;;;;;;;16.10;99.90;;;;;;2624636;54;19987;-79
2023/10/06 18:20:19;;;;;;;;;;;16.10;99.90;;;;;;2624112;54;19951;-79
2023/10/06 18:22:49;;;;;;;;;;;16.00;99.90;;;;;;2622186;47;19942;-78
2023/10/06 18:25:20;;;;;;;;;;;16.00;99.90;;;;;;2623386;54;19951;-79
2023/10/06 18:27:53;;;;;;;;;;;15.90;99.90;;;;;;2624371;47;20423;-79
2023/10/06 18:30:23;;;;;;;;;;;15.90;99.90;;;;;;2622693;54;19938;-77
2023/10/06 18:32:56;;;;;;;;;;;15.90;99.90;;;;;;2621100;47;19946;-78
2023/10/06 18:35:28;;;;;;;;;;;15.80;99.90;;;;;;2620738;47;19953;-78
2023/10/06 18:38:00;;;;;;;;;;;15.70;99.90;;;;;;2623560;47;19946;-80
2023/10/06 18:40:32;;;;;;;;;;;15.70;99.90;;;;;;2618460;54;19954;-77
2023/10/06 18:43:03;;;;;;;;;;;15.60;99.90;;;;;;2617512;47;19954;-76
2023/10/06 18:45:35;;;;;;;;;;;15.60;99.90;;;;;;2621870;47;20034;-76
2023/10/06 18:48:14;;;;;;;;;;;15.60;99.90;;;;;;2621216;54;19999;-77
2023/10/06 18:50:45;;;;;;;;;;;15.60;99.90;;;;;;2617835;47;19969;-77
2023/10/06 18:53:32;;;;;;;;;;;15.60;99.90;;;;;;2617776;47;19994;-76
2023/10/06 18:56:03;;;;;;;;;;;14.20;99.90;;;;;;2618991;54;19943;-77
2023/10/06 18:58:33;;;;;;;;;;;15.40;99.90;;;;;;2619198;54;20465;-77
2023/10/06 19:01:04;;;;;;;;;;;15.40;99.90;;;;;;2618540;54;19995;-76
2023/10/06 19:03:44;;;;;;;;;;;15.40;99.90;;;;;;2618199;54;19958;-76
2023/10/06 19:06:19;;;;;;;;;;;15.40;99.90;;;;;;2618110;39;20355;-76
2023/10/06 19:08:50;;;;;;;;;;;15.30;99.90;;;;;;2617385;47;19969;-77
2023/10/06 19:11:23;;;;;;;;;;;15.30;99.90;;;;;;2620421;47;19947;-76
2023/10/06 19:13:57;;;;;;;;;;;15.30;99.90;;;;;;2619226;54;19946;-77
2023/10/06 19:16:29;;;;;;;;;;;15.30;99.90;;;;;;2620793;54;19946;-75
2023/10/06 19:19:03;;;;;;;;;;;15.20;99.90;;;;;;2619327;46;19958;-78
2023/10/06 19:21:36;;;;;;;;;;;15.20;99.90;;;;;;2618398;47;19946;-77